createdAt,value
2016-10-01T00:00:34.263Z,91.02
2016-10-01T00:01:14.804Z,90.73
2016-10-01T00:01:55.351Z,90.73
2016-10-01T00:02:35.894Z,90.82
2016-10-01T00:03:16.439Z,91.3
2016-10-01T00:03:56.985Z,91.3
2016-10-01T00:04:37.530Z,91.39
2016-10-01T00:05:18.067Z,91.68
2016-10-01T00:05:58.609Z,91.59
2016-10-01T00:06:39.154Z,91.59
2016-10-01T00:07:19.697Z,91.59
2016-10-01T00:08:00.240Z,91.39
2016-10-01T00:08:40.783Z,91.68
2016-10-01T00:09:21.324Z,91.78
2016-10-01T00:10:01.868Z,92.07
2016-10-01T00:10:42.410Z,92.16
2016-10-01T00:11:22.956Z,92.25
2016-10-01T00:12:03.502Z,91.88
2016-10-01T00:12:44.048Z,92.07
2016-10-01T00:13:24.591Z,92.25
2016-10-01T00:14:05.137Z,92.54
2016-10-01T00:14:45.679Z,92.54
2016-10-01T00:15:26.228Z,92.54
2016-10-01T00:16:06.765Z,92.64
2016-10-01T00:16:47.308Z,92.45
2016-10-01T00:17:27.842Z,92.83
2016-10-01T00:18:08.386Z,93.12
2016-10-01T00:18:48.930Z,92.74
2016-10-01T00:19:29.474Z,92.74
2016-10-01T00:20:10.026Z,93.02
2016-10-01T00:20:50.571Z,92.35
2016-10-01T00:21:31.117Z,93.12
2016-10-01T00:22:11.658Z,92.83
2016-10-01T00:22:52.204Z,92.54
2016-10-01T00:23:32.750Z,93.12
2016-10-01T00:24:13.293Z,93.31
2016-10-01T00:24:53.831Z,93.31
2016-10-01T00:25:34.367Z,93.31
2016-10-01T00:26:14.908Z,93.4
2016-10-01T00:26:55.457Z,93.31
2016-10-01T00:27:35.995Z,93.02
2016-10-01T00:28:16.540Z,92.83
2016-10-01T00:28:57.084Z,92.74
2016-10-01T00:29:37.625Z,93.88
2016-10-01T00:30:18.164Z,93.6
2016-10-01T00:30:58.707Z,93.69
2016-10-01T00:31:39.251Z,93.69
2016-10-01T00:32:19.789Z,93.69
2016-10-01T00:33:00.336Z,93.31
2016-10-01T00:33:40.880Z,93.5
2016-10-01T00:34:21.422Z,93.5
2016-10-01T00:35:01.960Z,93.79
2016-10-01T00:35:42.504Z,93.93
2016-10-01T00:36:23.048Z,93.69
2016-10-01T00:37:03.593Z,93.45
2016-10-01T00:37:44.136Z,93.36
2016-10-01T00:38:24.684Z,93.55
2016-10-01T00:39:05.229Z,94.12
2016-10-01T00:39:45.776Z,94.36
2016-10-01T00:40:26.316Z,94.02
2016-10-01T00:41:06.859Z,94.36
2016-10-01T00:41:47.406Z,93.98
2016-10-01T00:42:27.950Z,93.98
2016-10-01T00:43:08.487Z,94.26
2016-10-01T00:43:49.033Z,94.22
2016-10-01T00:44:29.568Z,93.93
2016-10-01T00:45:10.114Z,94.36
2016-10-01T00:45:50.656Z,94.26
2016-10-01T00:46:31.193Z,94.22
2016-10-01T00:47:11.736Z,94.31
2016-10-01T00:47:52.282Z,94.84
2016-10-01T00:48:32.826Z,94.79
2016-10-01T00:49:13.372Z,95.32
2016-10-01T00:49:53.918Z,95.36
2016-10-01T00:50:34.459Z,94.6
2016-10-01T00:51:14.992Z,94.98
2016-10-01T00:51:55.529Z,95.46
2016-10-01T00:52:36.066Z,95.56
2016-10-01T00:53:16.608Z,95.07
2016-10-01T00:53:57.161Z,95.56
2016-10-01T00:54:37.700Z,95.75
2016-10-01T00:55:18.252Z,95.56
2016-10-01T00:55:58.790Z,95.36
2016-10-01T00:56:39.335Z,95.84
2016-10-01T00:57:19.864Z,96.22
2016-10-01T00:58:00.389Z,96.42
2016-10-01T00:58:40.935Z,95.94
2016-10-01T00:59:21.479Z,95.94
2016-10-01T01:00:02.008Z,96.7
2016-10-01T01:00:42.570Z,96.61
2016-10-01T01:01:23.102Z,95.56
2016-10-01T01:02:03.644Z,96.99
2016-10-01T01:02:44.189Z,97.28
2016-10-01T01:03:24.730Z,97.47
2016-10-01T01:04:05.271Z,96.89
2016-10-01T01:04:45.811Z,96.99
2016-10-01T01:05:26.340Z,96.51
2016-10-01T01:06:06.879Z,97.08
2016-10-01T01:06:47.424Z,96.89
2016-10-01T01:07:27.963Z,97.08
2016-10-01T01:08:08.507Z,97.18
2016-10-01T01:08:49.049Z,97.08
2016-10-01T01:09:29.594Z,97.94
2016-10-01T01:10:10.137Z,97.47
2016-10-01T01:10:50.676Z,97.37
2016-10-01T01:11:31.218Z,97.37
2016-10-01T01:12:11.745Z,97.66
2016-10-01T01:12:52.291Z,97.47
2016-10-01T01:13:32.830Z,97.47
2016-10-01T01:14:13.368Z,98.13
2016-10-01T01:14:53.921Z,97.94
2016-10-01T01:15:34.459Z,98.13
2016-10-01T01:16:15.005Z,97.94
2016-10-01T01:16:55.537Z,98.13
2016-10-01T01:17:36.069Z,97.85
2016-10-01T01:18:16.601Z,97.85
2016-10-01T01:18:57.139Z,98.8
2016-10-01T01:19:37.684Z,98.61
2016-10-01T01:20:18.226Z,98.61
2016-10-01T01:20:58.766Z,98.23
2016-10-01T01:21:39.304Z,98.71
2016-10-01T01:22:19.839Z,98.42
2016-10-01T01:23:00.371Z,98.99
2016-10-01T01:23:40.909Z,98.71
2016-10-01T01:24:21.446Z,98.23
2016-10-01T01:25:01.990Z,98.8
2016-10-01T01:25:42.521Z,98.8
2016-10-01T01:26:23.060Z,98.8
2016-10-01T01:27:03.567Z,98.71
2016-10-01T01:27:44.089Z,98.99
2016-10-01T01:28:24.634Z,99.09
2016-10-01T01:29:05.160Z,98.61
2016-10-01T01:29:45.702Z,98.9
2016-10-01T01:30:26.229Z,98.9
2016-10-01T01:31:06.750Z,98.8
2016-10-01T01:31:47.282Z,99.09
2016-10-01T01:32:27.821Z,98.71
2016-10-01T01:33:08.350Z,99.19
2016-10-01T01:33:48.887Z,99.09
2016-10-01T01:34:29.434Z,98.9
2016-10-01T01:35:09.968Z,99.66
2016-10-01T01:35:50.513Z,99.99
2016-10-01T01:36:31.045Z,99.66
2016-10-01T01:37:11.585Z,99.85
2016-10-01T01:37:52.121Z,99.95
2016-10-01T01:38:32.653Z,99.85
2016-10-01T01:39:13.170Z,99.57
2016-10-01T01:39:53.717Z,99.57
2016-10-01T01:40:34.249Z,99.95
2016-10-01T01:41:14.800Z,99.48
2016-10-01T01:41:55.343Z,99.57
2016-10-01T01:42:35.888Z,99.38
2016-10-01T01:43:16.415Z,99.48
2016-10-01T01:43:56.936Z,99.99
2016-10-01T01:44:37.464Z,99.99
2016-10-01T01:45:17.998Z,99.95
2016-10-01T01:45:58.530Z,99.85
2016-10-01T01:46:39.050Z,99.99
2016-10-01T01:47:19.554Z,99.99
2016-10-01T01:48:00.107Z,99.99
2016-10-01T01:48:40.639Z,99.76
2016-10-01T01:49:21.177Z,99.99
2016-10-01T01:50:01.730Z,99.99
2016-10-01T01:50:42.251Z,99.99
2016-10-01T01:51:22.799Z,99.76
2016-10-01T01:52:03.327Z,99.76
2016-10-01T01:52:43.861Z,99.99
2016-10-01T01:53:24.402Z,99.99
2016-10-01T01:54:04.946Z,99.99
2016-10-01T01:54:45.483Z,99.99
2016-10-01T01:55:26.026Z,99.99
2016-10-01T01:56:06.553Z,99.99
2016-10-01T01:56:47.083Z,99.99
2016-10-01T01:57:27.616Z,99.95
2016-10-01T01:58:08.127Z,99.95
2016-10-01T01:58:48.654Z,99.99
2016-10-01T01:59:29.182Z,99.99
2016-10-01T02:00:09.709Z,99.99
2016-10-01T02:00:50.242Z,99.99
2016-10-01T02:01:30.793Z,99.99
2016-10-01T02:02:11.309Z,99.99
2016-10-01T02:02:51.836Z,99.99
2016-10-01T02:03:32.362Z,99.99
2016-10-01T02:04:12.906Z,99.99
2016-10-01T02:04:53.468Z,99.99
2016-10-01T02:05:34.023Z,99.99
2016-10-01T02:06:14.567Z,99.99
2016-10-01T02:06:55.101Z,99.99
2016-10-01T02:07:35.631Z,99.99
2016-10-01T02:08:16.149Z,99.99
2016-10-01T02:08:56.692Z,99.99
2016-10-01T02:09:37.220Z,99.99
2016-10-01T02:10:17.753Z,99.99
2016-10-01T02:10:58.302Z,99.99
2016-10-01T02:11:38.826Z,99.99
2016-10-01T02:12:19.366Z,99.99
2016-10-01T02:12:59.893Z,99.99
2016-10-01T02:13:40.457Z,99.99
2016-10-01T02:14:20.973Z,99.99
2016-10-01T02:15:01.544Z,99.99
2016-10-01T02:15:42.042Z,99.99
2016-10-01T02:16:22.591Z,99.99
2016-10-01T02:17:03.113Z,99.99
2016-10-01T02:17:43.654Z,99.99
2016-10-01T02:18:24.197Z,99.99
2016-10-01T02:19:04.712Z,99.99
2016-10-01T02:19:45.236Z,99.99
2016-10-01T02:20:25.779Z,99.99
2016-10-01T02:21:06.296Z,99.99
2016-10-01T02:21:46.829Z,99.99
2016-10-01T02:22:27.365Z,99.99
2016-10-01T02:23:07.903Z,99.99
2016-10-01T02:23:48.419Z,99.99
2016-10-01T02:24:28.959Z,99.99
2016-10-01T02:25:09.480Z,99.99
2016-10-01T02:25:50.028Z,99.99
2016-10-01T02:26:30.571Z,99.99
2016-10-01T02:27:11.105Z,99.99
2016-10-01T02:27:51.649Z,99.99
2016-10-01T02:28:32.207Z,99.99
2016-10-01T02:29:12.725Z,99.99
2016-10-01T02:29:53.241Z,99.99
2016-10-01T02:30:33.783Z,99.99
2016-10-01T02:31:14.321Z,99.99
2016-10-01T02:31:54.845Z,99.99
2016-10-01T02:32:35.363Z,99.99
2016-10-01T02:33:15.909Z,99.99
2016-10-01T02:33:56.433Z,99.99
2016-10-01T02:34:36.987Z,99.99
2016-10-01T02:35:17.496Z,99.99
2016-10-01T02:35:58.034Z,99.99
2016-10-01T02:36:38.559Z,99.99
2016-10-01T02:37:19.084Z,99.99
2016-10-01T02:37:59.632Z,99.99
2016-10-01T02:38:40.179Z,99.99
2016-10-01T02:39:20.727Z,99.99
2016-10-01T02:40:01.280Z,99.99
2016-10-01T02:40:41.825Z,99.99
2016-10-01T02:41:22.359Z,99.99
2016-10-01T02:42:02.890Z,99.99
2016-10-01T02:42:43.433Z,99.99
2016-10-01T02:43:23.969Z,99.99
2016-10-01T02:44:04.506Z,99.99
2016-10-01T02:44:45.051Z,99.99
2016-10-01T02:45:25.557Z,99.99
2016-10-01T02:46:06.087Z,99.99
2016-10-01T02:46:46.631Z,99.99
2016-10-01T02:47:27.142Z,99.99
2016-10-01T02:48:07.674Z,99.99
2016-10-01T02:48:48.217Z,99.99
2016-10-01T02:49:28.756Z,99.99
2016-10-01T02:50:09.284Z,99.99
2016-10-01T02:50:49.831Z,99.99
2016-10-01T02:51:30.349Z,99.99
2016-10-01T02:52:10.897Z,99.99
2016-10-01T02:52:51.435Z,99.99
2016-10-01T02:53:31.958Z,99.99
2016-10-01T02:54:12.496Z,99.99
2016-10-01T02:54:53.041Z,99.99
2016-10-01T02:55:33.570Z,99.99
2016-10-01T02:56:14.104Z,99.99
2016-10-01T02:56:54.641Z,99.99
2016-10-01T02:57:35.191Z,99.99
2016-10-01T02:58:15.741Z,99.99
2016-10-01T02:58:56.279Z,99.99
2016-10-01T02:59:36.828Z,99.99
2016-10-01T03:00:17.352Z,99.99
2016-10-01T03:00:57.890Z,99.99
2016-10-01T03:01:38.426Z,99.99
2016-10-01T03:02:18.944Z,99.99
2016-10-01T03:02:59.484Z,99.99
2016-10-01T03:03:40.048Z,99.99
2016-10-01T03:04:20.615Z,99.99
2016-10-01T03:05:01.143Z,99.99
2016-10-01T03:05:41.691Z,99.99
2016-10-01T03:06:22.226Z,99.99
2016-10-01T03:07:02.766Z,99.99
2016-10-01T03:07:43.292Z,99.99
2016-10-01T03:08:23.837Z,99.99
2016-10-01T03:09:04.371Z,99.99
2016-10-01T03:09:44.904Z,99.99
2016-10-01T03:10:25.450Z,99.99
2016-10-01T03:11:05.983Z,99.99
2016-10-01T03:11:46.511Z,99.99
2016-10-01T03:12:27.058Z,99.99
2016-10-01T03:13:07.604Z,99.99
2016-10-01T03:13:48.127Z,99.99
2016-10-01T03:14:28.656Z,99.99
2016-10-01T03:15:09.190Z,99.99
2016-10-01T03:15:49.716Z,99.99
2016-10-01T03:16:30.254Z,99.99
2016-10-01T03:17:10.774Z,99.99
2016-10-01T03:17:51.319Z,99.99
2016-10-01T03:18:31.869Z,99.99
2016-10-01T03:19:12.413Z,99.99
2016-10-01T03:19:52.950Z,99.99
2016-10-01T03:20:33.467Z,99.99
2016-10-01T03:21:13.991Z,99.99
2016-10-01T03:21:54.534Z,99.99
2016-10-01T03:22:35.090Z,99.99
2016-10-01T03:23:15.622Z,99.99
2016-10-01T03:23:56.161Z,99.99
2016-10-01T03:24:36.711Z,99.99
2016-10-01T03:25:17.262Z,99.99
2016-10-01T03:25:57.804Z,99.99
2016-10-01T03:26:38.350Z,99.99
2016-10-01T03:27:18.881Z,99.99
2016-10-01T03:27:59.423Z,99.99
2016-10-01T03:28:39.951Z,99.99
2016-10-01T03:29:20.476Z,99.99
2016-10-01T03:30:01.027Z,99.99
2016-10-01T03:30:41.553Z,99.99
2016-10-01T03:31:22.075Z,99.99
2016-10-01T03:32:02.605Z,99.99
2016-10-01T03:32:43.128Z,99.99
2016-10-01T03:33:23.663Z,99.99
2016-10-01T03:34:04.185Z,99.99
2016-10-01T03:34:44.704Z,99.99
2016-10-01T03:35:25.239Z,99.99
2016-10-01T03:36:05.784Z,99.99
2016-10-01T03:36:46.324Z,99.99
2016-10-01T03:37:26.876Z,99.99
2016-10-01T03:38:07.442Z,99.99
2016-10-01T03:38:47.984Z,99.99
2016-10-01T03:39:28.516Z,99.99
2016-10-01T03:40:09.056Z,99.99
2016-10-01T03:40:49.583Z,99.99
2016-10-01T03:41:30.119Z,99.99
2016-10-01T03:42:10.664Z,99.99
2016-10-01T03:42:51.195Z,99.99
2016-10-01T03:43:31.733Z,99.99
2016-10-01T03:44:12.276Z,99.99
2016-10-01T03:44:52.811Z,99.99
2016-10-01T03:45:33.338Z,99.99
2016-10-01T03:46:13.865Z,99.99
2016-10-01T03:46:54.401Z,99.99
2016-10-01T03:47:34.948Z,99.99
2016-10-01T03:48:15.489Z,99.99
2016-10-01T03:48:56.030Z,99.99
2016-10-01T03:49:36.599Z,99.99
2016-10-01T03:50:17.146Z,99.99
2016-10-01T03:50:57.685Z,99.99
2016-10-01T03:51:38.236Z,99.99
2016-10-01T03:52:18.811Z,99.99
2016-10-01T03:52:59.316Z,99.99
2016-10-01T03:53:39.861Z,99.99
2016-10-01T03:54:20.385Z,99.99
2016-10-01T03:55:00.961Z,99.99
2016-10-01T03:55:41.488Z,99.99
2016-10-01T03:56:22.020Z,99.99
2016-10-01T03:57:02.553Z,99.99
2016-10-01T03:57:43.102Z,99.99
2016-10-01T03:58:23.644Z,99.99
2016-10-01T03:59:04.193Z,99.99
2016-10-01T03:59:44.730Z,99.99
2016-10-01T04:00:25.588Z,99.99
2016-10-01T04:01:06.126Z,99.99
2016-10-01T04:01:46.668Z,99.99
2016-10-01T04:02:27.196Z,99.99
2016-10-01T04:03:07.744Z,99.99
2016-10-01T04:03:48.269Z,99.99
2016-10-01T04:04:28.801Z,99.99
2016-10-01T04:05:09.344Z,99.99
2016-10-01T04:05:49.868Z,99.99
2016-10-01T04:06:30.388Z,99.99
2016-10-01T04:07:10.923Z,99.99
2016-10-01T04:07:51.469Z,99.99
2016-10-01T04:08:32.019Z,99.99
2016-10-01T04:09:12.557Z,99.99
2016-10-01T04:09:53.098Z,99.99
2016-10-01T04:10:33.633Z,99.99
2016-10-01T04:11:14.162Z,99.99
2016-10-01T04:11:54.693Z,99.99
2016-10-01T04:12:35.227Z,99.99
2016-10-01T04:13:15.772Z,99.99
2016-10-01T04:13:56.332Z,99.99
2016-10-01T04:14:36.883Z,99.99
2016-10-01T04:15:17.412Z,99.99
2016-10-01T04:15:57.964Z,99.99
2016-10-01T04:16:38.506Z,99.99
2016-10-01T04:17:19.053Z,99.99
2016-10-01T04:17:59.597Z,99.99
2016-10-01T04:18:40.141Z,99.99
2016-10-01T04:19:20.697Z,99.99
2016-10-01T04:20:01.244Z,99.99
2016-10-01T04:20:41.791Z,99.99
2016-10-01T04:21:22.327Z,99.99
2016-10-01T04:22:02.923Z,99.99
2016-10-01T04:22:43.459Z,99.99
2016-10-01T04:23:24.009Z,99.99
2016-10-01T04:24:04.540Z,99.99
2016-10-01T04:24:45.080Z,99.99
2016-10-01T04:25:25.620Z,99.99
2016-10-01T04:26:06.157Z,99.99
2016-10-01T04:26:46.695Z,99.99
2016-10-01T04:27:27.240Z,99.99
2016-10-01T04:28:07.791Z,99.99
2016-10-01T04:28:48.329Z,99.99
2016-10-01T04:29:28.868Z,99.99
2016-10-01T04:30:09.419Z,99.99
2016-10-01T04:30:49.960Z,99.99
2016-10-01T04:31:30.478Z,99.99
2016-10-01T04:32:11.011Z,99.99
2016-10-01T04:32:51.562Z,99.99
2016-10-01T04:33:32.096Z,99.99
2016-10-01T04:34:12.643Z,99.99
2016-10-01T04:34:53.185Z,99.99
2016-10-01T04:35:33.731Z,99.99
2016-10-01T04:36:14.277Z,99.99
2016-10-01T04:36:54.819Z,99.99
2016-10-01T04:37:35.362Z,99.99
2016-10-01T04:38:15.881Z,99.99
2016-10-01T04:38:56.440Z,99.99
2016-10-01T04:39:36.978Z,99.99
2016-10-01T04:40:17.497Z,99.99
2016-10-01T04:40:58.049Z,99.99
2016-10-01T04:41:38.587Z,99.99
2016-10-01T04:42:19.120Z,99.99
2016-10-01T04:42:59.667Z,99.99
2016-10-01T04:43:40.201Z,99.99
2016-10-01T04:44:20.753Z,99.99
2016-10-01T04:45:01.313Z,99.99
2016-10-01T04:45:41.828Z,99.99
2016-10-01T04:46:22.356Z,99.99
2016-10-01T04:47:02.891Z,99.99
2016-10-01T04:47:43.433Z,99.99
2016-10-01T04:48:23.977Z,99.99
2016-10-01T04:49:04.555Z,99.99
2016-10-01T04:49:45.088Z,99.99
2016-10-01T04:50:25.633Z,99.99
2016-10-01T04:51:06.170Z,99.99
2016-10-01T04:53:59.639Z,99.99
2016-10-01T04:54:43.219Z,99.99
2016-10-01T04:55:23.727Z,99.99
2016-10-01T04:56:04.226Z,99.99
2016-10-01T04:56:44.723Z,99.99
2016-10-01T04:57:25.219Z,99.99
2016-10-01T04:58:05.743Z,99.99
2016-10-01T04:58:46.236Z,99.99
2016-10-01T04:59:26.723Z,99.99
2016-10-01T05:00:07.270Z,99.99
2016-10-01T05:00:47.791Z,99.99
2016-10-01T05:01:28.313Z,99.99
2016-10-01T05:02:08.852Z,99.99
2016-10-01T05:02:49.354Z,99.99
2016-10-01T05:03:29.863Z,99.99
2016-10-01T05:04:10.379Z,99.99
2016-10-01T05:04:50.886Z,99.99
2016-10-01T05:05:31.406Z,99.99
2016-10-01T05:06:11.933Z,99.99
2016-10-01T05:06:52.477Z,99.99
2016-10-01T05:07:32.951Z,99.99
2016-10-01T05:08:13.463Z,99.99
2016-10-01T05:08:53.983Z,99.99
2016-10-01T05:09:34.496Z,99.99
2016-10-01T05:10:15.044Z,99.99
2016-10-01T05:10:55.563Z,99.99
2016-10-01T05:11:36.066Z,99.99
2016-10-01T05:12:16.613Z,99.99
2016-10-01T05:12:57.131Z,99.99
2016-10-01T05:13:37.654Z,99.99
2016-10-01T05:14:18.174Z,99.99
2016-10-01T05:14:58.683Z,99.99
2016-10-01T05:15:39.229Z,99.99
2016-10-01T05:16:19.783Z,99.99
2016-10-01T05:17:00.258Z,99.99
2016-10-01T05:17:40.773Z,99.99
2016-10-01T05:18:21.290Z,99.99
2016-10-01T05:19:01.832Z,99.99
2016-10-01T05:19:42.335Z,99.99
2016-10-01T05:20:22.841Z,99.99
2016-10-01T05:21:03.345Z,99.99
2016-10-01T05:21:43.853Z,99.99
2016-10-01T05:22:24.355Z,99.99
2016-10-01T05:23:04.895Z,99.99
2016-10-01T05:23:45.407Z,99.99
2016-10-01T05:24:25.902Z,99.99
2016-10-01T05:25:06.396Z,99.99
2016-10-01T05:25:46.914Z,99.99
2016-10-01T05:26:27.400Z,99.99
2016-10-01T05:27:07.900Z,99.99
2016-10-01T05:27:48.421Z,99.99
2016-10-01T05:28:28.924Z,99.99
2016-10-01T05:29:09.443Z,99.99
2016-10-01T05:29:49.932Z,99.99
2016-10-01T05:30:30.454Z,99.99
2016-10-01T05:31:10.958Z,99.99
2016-10-01T05:31:51.415Z,99.99
2016-10-01T05:32:31.948Z,99.99
2016-10-01T05:34:46.221Z,99.99
2016-10-01T05:35:26.625Z,99.99
2016-10-01T05:36:07.104Z,99.99
2016-10-01T05:36:47.596Z,99.99
2016-10-01T05:37:28.146Z,99.99
2016-10-01T05:38:08.606Z,99.99
2016-10-01T05:38:49.090Z,99.99
2016-10-01T05:39:29.572Z,99.99
2016-10-01T05:40:10.070Z,99.99
2016-10-01T05:40:50.555Z,99.99
2016-10-01T05:41:31.056Z,99.99
2016-10-01T05:42:11.551Z,99.99
2016-10-01T05:42:52.023Z,99.99
2016-10-01T05:43:32.555Z,99.99
2016-10-01T05:44:13.051Z,99.99
2016-10-01T05:44:53.567Z,99.99
2016-10-01T05:45:34.024Z,99.99
2016-10-01T05:46:14.569Z,99.99
2016-10-01T05:46:55.041Z,99.99
2016-10-01T05:47:35.552Z,99.99
2016-10-01T05:48:16.046Z,99.99
2016-10-01T05:48:56.579Z,99.99
2016-10-01T05:49:37.079Z,99.99
2016-10-01T05:50:17.592Z,99.99
2016-10-01T05:50:58.223Z,99.99
2016-10-01T05:51:38.695Z,99.99
2016-10-01T05:52:19.199Z,99.99
2016-10-01T05:52:59.684Z,99.99
2016-10-01T05:53:40.184Z,99.99
2016-10-01T05:54:20.698Z,99.99
2016-10-01T05:55:01.260Z,99.99
2016-10-01T05:55:41.760Z,99.99
2016-10-01T05:56:22.265Z,99.99
2016-10-01T05:57:02.766Z,99.99
2016-10-01T05:57:43.257Z,99.99
2016-10-01T05:58:23.727Z,99.99
2016-10-01T05:59:04.229Z,99.99
2016-10-01T05:59:44.729Z,99.99
2016-10-01T06:00:25.214Z,99.99
2016-10-01T06:01:05.816Z,99.99
2016-10-01T06:01:46.349Z,99.99
2016-10-01T06:02:26.857Z,99.99
2016-10-01T06:03:07.330Z,99.99
2016-10-01T06:03:47.869Z,99.99
2016-10-01T06:04:28.361Z,99.99
2016-10-01T06:05:08.846Z,99.99
2016-10-01T06:05:49.364Z,99.99
2016-10-01T06:06:29.905Z,99.99
2016-10-01T06:07:10.403Z,99.99
2016-10-01T06:07:50.941Z,99.99
2016-10-01T06:08:31.491Z,99.99
2016-10-01T06:09:12.050Z,99.99
2016-10-01T06:09:52.565Z,99.99
2016-10-01T06:10:33.082Z,99.99
2016-10-01T06:11:13.647Z,99.99
2016-10-01T06:11:54.157Z,99.99
2016-10-01T06:12:34.756Z,99.99
2016-10-01T06:13:15.276Z,99.99
2016-10-01T06:13:55.819Z,99.99
2016-10-01T06:14:36.315Z,99.99
2016-10-01T06:15:17.479Z,99.99
2016-10-01T06:15:58.119Z,99.99
2016-10-01T06:16:38.633Z,99.99
2016-10-01T06:17:19.277Z,99.99
2016-10-01T06:17:59.750Z,99.99
2016-10-01T06:18:40.576Z,99.99
2016-10-01T06:19:21.161Z,99.99
2016-10-01T06:20:01.911Z,99.99
2016-10-01T06:20:42.434Z,99.99
2016-10-01T06:21:22.992Z,99.99
2016-10-01T06:22:03.577Z,99.99
2016-10-01T06:22:44.133Z,99.99
2016-10-01T06:23:24.783Z,99.99
2016-10-01T06:24:05.296Z,99.99
2016-10-01T06:24:45.912Z,99.99
2016-10-01T06:25:26.529Z,99.99
2016-10-01T06:26:07.033Z,99.99
2016-10-01T06:26:47.599Z,99.99
2016-10-01T06:27:28.887Z,99.99
2016-10-01T06:28:09.410Z,99.99
2016-10-01T06:28:51.510Z,99.99
2016-10-01T06:29:32.058Z,99.99
2016-10-01T06:30:12.622Z,99.99
2016-10-01T06:30:53.164Z,99.99
2016-10-01T06:31:33.683Z,99.99
2016-10-01T06:32:14.224Z,99.99
2016-10-01T06:32:54.954Z,99.99
2016-10-01T06:33:35.526Z,99.99
2016-10-01T06:34:16.096Z,99.99
2016-10-01T06:34:56.579Z,99.99
2016-10-01T06:35:37.137Z,99.99
2016-10-01T06:36:17.667Z,99.99
2016-10-01T06:36:58.200Z,99.99
2016-10-01T06:37:38.730Z,99.99
2016-10-01T06:38:19.285Z,99.99
2016-10-01T06:38:59.815Z,99.99
2016-10-01T06:44:27.178Z,99.99
2016-10-01T06:45:08.202Z,99.99
2016-10-01T06:45:49.212Z,99.99
2016-10-01T06:46:30.276Z,99.99
2016-10-01T06:47:13.073Z,99.99
2016-10-01T06:47:53.876Z,99.99
2016-10-01T06:48:35.261Z,99.99
2016-10-01T06:52:05.175Z,99.99
2016-10-01T06:52:46.029Z,99.99
2016-10-01T06:53:26.959Z,99.99
2016-10-01T06:54:07.824Z,99.99
2016-10-01T06:54:48.480Z,99.99
2016-10-01T06:55:28.996Z,99.99
2016-10-01T06:56:09.531Z,99.99
2016-10-01T06:56:50.135Z,99.99
2016-10-01T06:57:30.640Z,99.99
2016-10-01T06:58:11.166Z,99.99
2016-10-01T06:58:51.686Z,99.99
2016-10-01T06:59:32.482Z,99.99
2016-10-01T07:00:13.141Z,99.99
2016-10-01T07:00:53.740Z,99.99
2016-10-01T07:01:34.456Z,99.99
2016-10-01T07:02:15.309Z,99.99
2016-10-01T07:02:56.107Z,99.99
2016-10-01T07:03:36.632Z,99.99
2016-10-01T07:04:17.141Z,99.99
2016-10-01T07:04:57.663Z,99.99
2016-10-01T07:05:38.195Z,99.99
2016-10-01T07:06:18.690Z,99.99
2016-10-01T07:06:59.212Z,99.99
2016-10-01T07:07:39.739Z,99.99
2016-10-01T07:08:20.218Z,99.99
2016-10-01T07:09:00.749Z,99.99
2016-10-01T07:09:41.248Z,99.99
2016-10-01T07:10:21.860Z,99.99
2016-10-01T07:11:02.315Z,99.99
2016-10-01T07:11:42.805Z,99.99
2016-10-01T07:12:23.311Z,99.99
2016-10-01T07:13:03.824Z,99.99
2016-10-01T07:13:44.316Z,99.99
2016-10-01T07:14:24.845Z,99.99
2016-10-01T07:15:05.354Z,99.99
2016-10-01T07:15:45.846Z,99.99
2016-10-01T07:16:26.408Z,99.99
2016-10-01T07:17:06.904Z,99.99
2016-10-01T07:17:47.426Z,99.99
2016-10-01T07:18:27.956Z,99.99
2016-10-01T07:19:08.501Z,99.99
2016-10-01T07:19:49.044Z,99.99
2016-10-01T07:20:29.519Z,99.99
2016-10-01T07:21:10.111Z,99.99
2016-10-01T07:21:50.600Z,99.99
2016-10-01T07:22:31.149Z,99.99
2016-10-01T07:23:11.658Z,99.99
2016-10-01T07:23:52.180Z,99.99
2016-10-01T07:24:32.713Z,99.99
2016-10-01T07:25:13.236Z,99.99
2016-10-01T07:25:53.761Z,99.99
2016-10-01T07:26:34.309Z,99.99
2016-10-01T07:27:14.876Z,99.99
2016-10-01T07:27:55.369Z,99.99
2016-10-01T07:28:35.880Z,99.99
2016-10-01T07:29:16.370Z,99.99
2016-10-01T07:29:56.865Z,99.99
2016-10-01T07:30:37.415Z,99.99
2016-10-01T07:31:17.917Z,99.99
2016-10-01T07:31:58.413Z,99.99
2016-10-01T07:32:38.974Z,99.99
2016-10-01T07:33:19.496Z,99.99
2016-10-01T07:34:00.001Z,99.99
2016-10-01T07:34:40.523Z,99.99
2016-10-01T07:35:21.041Z,99.99
2016-10-01T07:36:01.561Z,99.99
2016-10-01T07:36:42.083Z,99.99
2016-10-01T07:37:22.533Z,99.99
2016-10-01T07:38:03.053Z,99.99
2016-10-01T07:38:43.565Z,99.99
2016-10-01T07:39:24.139Z,99.99
2016-10-01T07:40:04.653Z,99.99
2016-10-01T07:40:45.214Z,99.99
2016-10-01T07:41:25.691Z,99.99
2016-10-01T07:42:06.217Z,99.99
2016-10-01T07:42:46.822Z,99.99
2016-10-01T07:43:28.705Z,99.99
2016-10-01T07:44:09.182Z,99.99
2016-10-01T07:44:49.718Z,99.99
2016-10-01T07:45:30.224Z,99.99
2016-10-01T07:46:10.734Z,99.99
2016-10-01T07:46:51.266Z,99.99
2016-10-01T07:47:32.626Z,99.99
2016-10-01T07:48:13.462Z,99.99
2016-10-01T07:48:53.951Z,99.99
2016-10-01T07:49:34.492Z,99.99
2016-10-01T07:50:15.019Z,99.99
2016-10-01T07:50:55.560Z,99.99
2016-10-01T07:51:36.630Z,99.99
2016-10-01T07:52:17.724Z,99.99
2016-10-01T07:52:57.783Z,99.99
2016-10-01T07:53:38.295Z,99.99
2016-10-01T07:54:18.845Z,99.99
2016-10-01T07:54:59.438Z,99.99
2016-10-01T07:55:39.934Z,99.99
2016-10-01T07:56:20.622Z,99.99
2016-10-01T07:57:01.140Z,99.99
2016-10-01T07:57:41.645Z,99.99
2016-10-01T07:58:22.155Z,99.99
2016-10-01T07:59:02.669Z,99.99
2016-10-01T07:59:44.540Z,99.99
2016-10-01T08:00:25.042Z,99.99
2016-10-01T08:01:05.537Z,99.99
2016-10-01T08:01:46.083Z,99.99
2016-10-01T08:02:26.621Z,99.99
2016-10-01T08:03:07.170Z,99.99
2016-10-01T08:03:47.755Z,99.99
2016-10-01T08:04:28.264Z,99.99
2016-10-01T08:05:08.767Z,99.99
2016-10-01T08:05:49.282Z,99.99
2016-10-01T08:06:29.790Z,99.99
2016-10-01T08:07:10.313Z,99.99
2016-10-01T08:07:50.853Z,99.99
2016-10-01T08:08:31.378Z,99.99
2016-10-01T08:09:11.897Z,99.99
2016-10-01T08:09:52.520Z,99.99
2016-10-01T08:10:33.100Z,99.99
2016-10-01T08:11:13.589Z,99.99
2016-10-01T08:11:54.113Z,99.99
2016-10-01T08:12:34.627Z,99.99
2016-10-01T08:13:15.120Z,99.99
2016-10-01T08:13:55.622Z,99.99
2016-10-01T08:14:36.177Z,99.99
2016-10-01T08:15:16.776Z,99.99
2016-10-01T08:15:57.336Z,99.99
2016-10-01T08:16:37.901Z,99.99
2016-10-01T08:17:18.439Z,99.99
2016-10-01T08:17:58.937Z,99.99
2016-10-01T08:18:39.452Z,99.99
2016-10-01T08:19:20.027Z,99.99
2016-10-01T08:20:00.585Z,99.99
2016-10-01T08:20:41.132Z,99.99
2016-10-01T08:21:21.648Z,99.99
2016-10-01T08:22:02.169Z,99.99
2016-10-01T08:22:42.736Z,99.99
2016-10-01T08:23:23.333Z,99.99
2016-10-01T08:24:03.847Z,99.99
2016-10-01T08:24:44.576Z,99.99
2016-10-01T08:25:25.144Z,99.99
2016-10-01T08:26:05.693Z,99.99
2016-10-01T08:26:46.198Z,99.99
2016-10-01T08:27:26.728Z,99.99
2016-10-01T08:28:07.287Z,99.99
2016-10-01T08:28:47.803Z,99.99
2016-10-01T08:30:47.636Z,99.99
2016-10-01T08:31:28.086Z,99.99
2016-10-01T08:32:08.600Z,99.99
2016-10-01T08:32:49.118Z,99.99
2016-10-01T08:33:29.636Z,99.99
2016-10-01T08:34:10.187Z,99.99
2016-10-01T08:34:50.700Z,99.99
2016-10-01T08:35:31.213Z,99.99
2016-10-01T08:36:11.764Z,99.99
2016-10-01T08:36:52.257Z,99.99
2016-10-01T08:37:32.795Z,99.99
2016-10-01T08:38:13.307Z,99.99
2016-10-01T08:38:53.815Z,99.99
2016-10-01T08:39:34.355Z,99.99
2016-10-01T08:40:14.904Z,99.99
2016-10-01T08:40:55.430Z,99.99
2016-10-01T08:41:35.934Z,99.99
2016-10-01T08:42:16.498Z,99.99
2016-10-01T08:42:57.020Z,99.99
2016-10-01T08:43:37.546Z,99.99
2016-10-01T08:44:18.064Z,99.99
2016-10-01T08:44:58.570Z,99.99
2016-10-01T08:45:39.103Z,99.99
2016-10-01T08:46:19.632Z,99.99
2016-10-01T08:47:00.188Z,99.99
2016-10-01T08:47:40.715Z,99.99
2016-10-01T08:48:21.237Z,99.99
2016-10-01T08:49:01.783Z,99.99
2016-10-01T08:49:42.317Z,99.99
2016-10-01T08:50:22.844Z,99.99
2016-10-01T08:51:03.367Z,99.99
2016-10-01T08:51:43.935Z,99.99
2016-10-01T08:52:24.511Z,99.99
2016-10-01T08:53:05.062Z,99.99
2016-10-01T08:53:45.563Z,99.99
2016-10-01T08:54:26.102Z,99.99
2016-10-01T08:55:06.600Z,99.99
2016-10-01T08:55:47.150Z,99.99